sensor_id;sensor_type;location;lat;lon;timestamp;temperature;humidity
52565;DHT22;38460;53.106;7.004;2024-03-08T00:00:18;0.90;99.90
52565;DHT22;38460;53.106;7.004;2024-03-08T00:02:45;0.90;99.90
52565;DHT22;38460;53.106;7.004;2024-03-08T00:05:11;0.90;99.90
52565;DHT22;38460;53.106;7.004;2024-03-08T00:07:38;0.90;99.90
52565;DHT22;38460;53.106;7.004;2024-03-08T00:10:06;0.90;99.90
52565;DHT22;38460;53.106;7.004;2024-03-08T00:12:40;1.00;99.90
52565;DHT22;38460;53.106;7.004;2024-03-08T00:15:15;0.90;99.90
52565;DHT22;38460;53.106;7.004;2024-03-08T00:17:42;1.00;99.90
52565;DHT22;38460;53.106;7.004;2024-03-08T00:20:08;0.90;99.90
52565;DHT22;38460;53.106;7.004;2024-03-08T00:22:35;1.00;99.90
52565;DHT22;38460;53.106;7.004;2024-03-08T00:25:05;1.00;99.90
52565;DHT22;38460;53.106;7.004;2024-03-08T00:27:31;0.90;99.90
52565;DHT22;38460;53.106;7.004;2024-03-08T00:29:57;1.00;99.90
52565;DHT22;38460;53.106;7.004;2024-03-08T00:32:23;0.90;99.90
52565;DHT22;38460;53.106;7.004;2024-03-08T00:34:50;0.90;99.90
52565;DHT22;38460;53.106;7.004;2024-03-08T00:37:17;1.00;99.90
52565;DHT22;38460;53.106;7.004;2024-03-08T00:39:43;0.90;99.90
52565;DHT22;38460;53.106;7.004;2024-03-08T00:42:09;0.90;99.90
52565;DHT22;38460;53.106;7.004;2024-03-08T00:44:36;0.90;99.90
52565;DHT22;38460;53.106;7.004;2024-03-08T00:47:01;0.90;99.90
52565;DHT22;38460;53.106;7.004;2024-03-08T00:49:28;0.90;99.90
52565;DHT22;38460;53.106;7.004;2024-03-08T00:51:54;1.00;99.90
52565;DHT22;38460;53.106;7.004;2024-03-08T00:54:20;0.90;99.90
52565;DHT22;38460;53.106;7.004;2024-03-08T00:56:46;0.90;99.90
52565;DHT22;38460;53.106;7.004;2024-03-08T00:59:11;0.90;99.90
52565;DHT22;38460;53.106;7.004;2024-03-08T01:01:42;0.90;99.90
52565;DHT22;38460;53.106;7.004;2024-03-08T01:04:10;0.90;99.90
52565;DHT22;38460;53.106;7.004;2024-03-08T01:06:35;0.90;99.90
52565;DHT22;38460;53.106;7.004;2024-03-08T01:09:01;0.90;99.90
52565;DHT22;38460;53.106;7.004;2024-03-08T01:11:27;0.90;99.90
52565;DHT22;38460;53.106;7.004;2024-03-08T01:13:56;0.90;99.90
52565;DHT22;38460;53.106;7.004;2024-03-08T01:16:21;0.90;99.90
52565;DHT22;38460;53.106;7.004;2024-03-08T01:18:47;0.90;99.90
52565;DHT22;38460;53.106;7.004;2024-03-08T01:21:13;0.80;99.90
52565;DHT22;38460;53.106;7.004;2024-03-08T01:23:39;0.90;99.90
52565;DHT22;38460;53.106;7.004;2024-03-08T01:26:06;0.80;99.90
52565;DHT22;38460;53.106;7.004;2024-03-08T01:28:32;0.80;99.90
52565;DHT22;38460;53.106;7.004;2024-03-08T01:31:00;0.80;99.90
52565;DHT22;38460;53.106;7.004;2024-03-08T01:33:26;0.80;99.90
52565;DHT22;38460;53.106;7.004;2024-03-08T01:35:53;0.80;99.90
52565;DHT22;38460;53.106;7.004;2024-03-08T01:38:21;0.80;99.90
52565;DHT22;38460;53.106;7.004;2024-03-08T01:40:48;0.80;99.90
52565;DHT22;38460;53.106;7.004;2024-03-08T01:43:21;0.80;99.90
52565;DHT22;38460;53.106;7.004;2024-03-08T01:45:48;0.70;99.90
52565;DHT22;38460;53.106;7.004;2024-03-08T01:48:15;0.70;99.90
52565;DHT22;38460;53.106;7.004;2024-03-08T01:50:43;0.70;99.90
52565;DHT22;38460;53.106;7.004;2024-03-08T01:53:09;0.70;99.90
52565;DHT22;38460;53.106;7.004;2024-03-08T01:55:38;0.70;99.90
52565;DHT22;38460;53.106;7.004;2024-03-08T01:58:09;0.70;99.90
52565;DHT22;38460;53.106;7.004;2024-03-08T02:00:36;0.60;99.90
52565;DHT22;38460;53.106;7.004;2024-03-08T02:03:05;0.60;99.90
52565;DHT22;38460;53.106;7.004;2024-03-08T02:05:32;0.60;99.90
52565;DHT22;38460;53.106;7.004;2024-03-08T02:07:58;0.60;99.90
52565;DHT22;38460;53.106;7.004;2024-03-08T02:10:23;0.50;99.90
52565;DHT22;38460;53.106;7.004;2024-03-08T02:12:49;0.50;99.90
52565;DHT22;38460;53.106;7.004;2024-03-08T02:15:16;0.50;99.90
52565;DHT22;38460;53.106;7.004;2024-03-08T02:17:42;0.50;99.90
52565;DHT22;38460;53.106;7.004;2024-03-08T02:20:08;0.50;99.90
52565;DHT22;38460;53.106;7.004;2024-03-08T02:22:36;0.40;99.90
52565;DHT22;38460;53.106;7.004;2024-03-08T02:25:02;0.40;99.90
52565;DHT22;38460;53.106;7.004;2024-03-08T02:27:28;0.40;99.90
52565;DHT22;38460;53.106;7.004;2024-03-08T02:29:56;0.40;99.90
52565;DHT22;38460;53.106;7.004;2024-03-08T02:32:23;0.40;99.90
52565;DHT22;38460;53.106;7.004;2024-03-08T02:34:49;0.40;99.90
52565;DHT22;38460;53.106;7.004;2024-03-08T02:37:16;0.40;99.90
52565;DHT22;38460;53.106;7.004;2024-03-08T02:39:41;0.30;99.90
52565;DHT22;38460;53.106;7.004;2024-03-08T02:42:07;0.40;99.90
52565;DHT22;38460;53.106;7.004;2024-03-08T02:44:33;0.40;99.90
52565;DHT22;38460;53.106;7.004;2024-03-08T02:46:59;0.30;99.90
52565;DHT22;38460;53.106;7.004;2024-03-08T02:49:26;0.40;99.90
52565;DHT22;38460;53.106;7.004;2024-03-08T02:51:55;0.30;99.90
52565;DHT22;38460;53.106;7.004;2024-03-08T02:54:22;0.30;99.90
52565;DHT22;38460;53.106;7.004;2024-03-08T02:56:49;0.30;99.90
52565;DHT22;38460;53.106;7.004;2024-03-08T02:59:18;0.30;99.90
52565;DHT22;38460;53.106;7.004;2024-03-08T03:01:44;0.30;99.90
52565;DHT22;38460;53.106;7.004;2024-03-08T03:04:10;0.30;99.90
52565;DHT22;38460;53.106;7.004;2024-03-08T03:06:36;0.30;99.90
52565;DHT22;38460;53.106;7.004;2024-03-08T03:09:02;0.30;99.90
52565;DHT22;38460;53.106;7.004;2024-03-08T03:11:29;0.30;99.90
52565;DHT22;38460;53.106;7.004;2024-03-08T03:13:54;0.30;99.90
52565;DHT22;38460;53.106;7.004;2024-03-08T03:16:21;0.20;99.90
52565;DHT22;38460;53.106;7.004;2024-03-08T03:18:47;0.20;99.90
52565;DHT22;38460;53.106;7.004;2024-03-08T03:21:13;0.20;99.90
52565;DHT22;38460;53.106;7.004;2024-03-08T03:23:40;0.20;99.90
52565;DHT22;38460;53.106;7.004;2024-03-08T03:26:06;0.20;99.90
52565;DHT22;38460;53.106;7.004;2024-03-08T03:28:37;0.20;99.90
52565;DHT22;38460;53.106;7.004;2024-03-08T03:31:08;0.10;99.90
52565;DHT22;38460;53.106;7.004;2024-03-08T03:33:35;0.10;99.90
52565;DHT22;38460;53.106;7.004;2024-03-08T03:36:03;0.10;99.90
52565;DHT22;38460;53.106;7.004;2024-03-08T03:38:30;0.10;99.90
52565;DHT22;38460;53.106;7.004;2024-03-08T03:40:56;0.10;99.90
52565;DHT22;38460;53.106;7.004;2024-03-08T03:43:29;0.10;99.90
52565;DHT22;38460;53.106;7.004;2024-03-08T03:45:55;0.10;99.90
52565;DHT22;38460;53.106;7.004;2024-03-08T03:48:21;1.20;99.90
52565;DHT22;38460;53.106;7.004;2024-03-08T03:50:47;0.00;99.90
52565;DHT22;38460;53.106;7.004;2024-03-08T03:53:12;0.00;99.90
52565;DHT22;38460;53.106;7.004;2024-03-08T03:55:38;0.00;99.90
52565;DHT22;38460;53.106;7.004;2024-03-08T03:58:04;0.00;99.90
52565;DHT22;38460;53.106;7.004;2024-03-08T04:00:30;-0.10;99.90
52565;DHT22;38460;53.106;7.004;2024-03-08T04:02:56;-0.10;99.90
52565;DHT22;38460;53.106;7.004;2024-03-08T04:05:24;-0.10;99.90
52565;DHT22;38460;53.106;7.004;2024-03-08T04:07:50;-0.10;99.90
52565;DHT22;38460;53.106;7.004;2024-03-08T04:10:16;-0.10;99.90
52565;DHT22;38460;53.106;7.004;2024-03-08T04:12:42;-0.10;99.90
52565;DHT22;38460;53.106;7.004;2024-03-08T04:15:08;-0.10;99.90
52565;DHT22;38460;53.106;7.004;2024-03-08T04:17:36;-0.20;99.90
52565;DHT22;38460;53.106;7.004;2024-03-08T04:20:03;-0.10;99.90
52565;DHT22;38460;53.106;7.004;2024-03-08T04:22:38;0.70;99.90
52565;DHT22;38460;53.106;7.004;2024-03-08T04:25:07;-0.20;99.90
52565;DHT22;38460;53.106;7.004;2024-03-08T04:27:35;-0.20;99.90
52565;DHT22;38460;53.106;7.004;2024-03-08T04:30:02;-0.20;99.90
52565;DHT22;38460;53.106;7.004;2024-03-08T04:32:28;-0.20;99.90
52565;DHT22;38460;53.106;7.004;2024-03-08T04:34:55;-0.30;99.90
52565;DHT22;38460;53.106;7.004;2024-03-08T04:37:21;-0.30;99.90
52565;DHT22;38460;53.106;7.004;2024-03-08T04:39:48;-0.30;99.90
52565;DHT22;38460;53.106;7.004;2024-03-08T04:42:15;-0.30;99.90
52565;DHT22;38460;53.106;7.004;2024-03-08T04:44:41;-0.30;99.90
52565;DHT22;38460;53.106;7.004;2024-03-08T04:47:07;-0.30;99.90
52565;DHT22;38460;53.106;7.004;2024-03-08T04:49:33;-0.30;99.90
52565;DHT22;38460;53.106;7.004;2024-03-08T04:52:04;-0.40;99.90
52565;DHT22;38460;53.106;7.004;2024-03-08T04:54:30;-0.30;99.90
52565;DHT22;38460;53.106;7.004;2024-03-08T04:56:57;-0.40;99.90
52565;DHT22;38460;53.106;7.004;2024-03-08T04:59:23;-0.40;99.90
52565;DHT22;38460;53.106;7.004;2024-03-08T05:01:49;-0.40;99.90
52565;DHT22;38460;53.106;7.004;2024-03-08T05:04:15;-0.40;99.90
52565;DHT22;38460;53.106;7.004;2024-03-08T05:06:41;-0.40;99.90
52565;DHT22;38460;53.106;7.004;2024-03-08T05:09:06;-0.40;99.90
52565;DHT22;38460;53.106;7.004;2024-03-08T05:11:45;-0.40;99.90
52565;DHT22;38460;53.106;7.004;2024-03-08T05:14:12;-0.40;99.90
52565;DHT22;38460;53.106;7.004;2024-03-08T05:16:45;-0.40;99.90
52565;DHT22;38460;53.106;7.004;2024-03-08T05:19:15;-0.40;99.90
52565;DHT22;38460;53.106;7.004;2024-03-08T05:21:49;-0.40;99.90
52565;DHT22;38460;53.106;7.004;2024-03-08T05:24:15;-0.40;99.90
52565;DHT22;38460;53.106;7.004;2024-03-08T05:26:42;-0.50;99.90
52565;DHT22;38460;53.106;7.004;2024-03-08T05:29:08;-0.50;99.90
52565;DHT22;38460;53.106;7.004;2024-03-08T05:31:51;-0.50;99.90
52565;DHT22;38460;53.106;7.004;2024-03-08T05:34:18;-0.50;99.90
52565;DHT22;38460;53.106;7.004;2024-03-08T05:36:45;-0.50;99.90
52565;DHT22;38460;53.106;7.004;2024-03-08T05:39:18;-0.50;99.90
52565;DHT22;38460;53.106;7.004;2024-03-08T05:41:45;-0.50;99.90
52565;DHT22;38460;53.106;7.004;2024-03-08T05:44:11;-0.50;99.90
52565;DHT22;38460;53.106;7.004;2024-03-08T05:46:38;-0.50;99.90
52565;DHT22;38460;53.106;7.004;2024-03-08T05:49:05;-0.50;99.90
52565;DHT22;38460;53.106;7.004;2024-03-08T05:51:34;-0.50;99.90
52565;DHT22;38460;53.106;7.004;2024-03-08T05:54:05;-0.50;99.90
52565;DHT22;38460;53.106;7.004;2024-03-08T05:56:34;-0.50;99.90
52565;DHT22;38460;53.106;7.004;2024-03-08T05:59:01;-0.50;99.90
52565;DHT22;38460;53.106;7.004;2024-03-08T06:01:28;-0.50;99.90
52565;DHT22;38460;53.106;7.004;2024-03-08T06:03:54;-0.50;99.90
52565;DHT22;38460;53.106;7.004;2024-03-08T06:06:24;-0.50;99.90
52565;DHT22;38460;53.106;7.004;2024-03-08T06:08:51;-0.50;99.90
52565;DHT22;38460;53.106;7.004;2024-03-08T06:11:18;-0.50;99.90
52565;DHT22;38460;53.106;7.004;2024-03-08T06:13:47;-0.50;99.90
52565;DHT22;38460;53.106;7.004;2024-03-08T06:16:13;-0.50;99.90
52565;DHT22;38460;53.106;7.004;2024-03-08T06:18:39;-0.50;99.90
52565;DHT22;38460;53.106;7.004;2024-03-08T06:21:05;-0.50;99.90
52565;DHT22;38460;53.106;7.004;2024-03-08T06:23:34;-0.50;99.90
52565;DHT22;38460;53.106;7.004;2024-03-08T06:26:09;-0.50;99.90
52565;DHT22;38460;53.106;7.004;2024-03-08T06:28:35;-0.50;99.90
52565;DHT22;38460;53.106;7.004;2024-03-08T06:31:01;-0.40;99.90
52565;DHT22;38460;53.106;7.004;2024-03-08T06:33:28;-0.50;99.90
52565;DHT22;38460;53.106;7.004;2024-03-08T06:35:54;-0.40;99.90
52565;DHT22;38460;53.106;7.004;2024-03-08T06:38:25;-0.40;99.90
52565;DHT22;38460;53.106;7.004;2024-03-08T06:40:54;-0.40;99.90
52565;DHT22;38460;53.106;7.004;2024-03-08T06:43:20;-0.40;99.90
52565;DHT22;38460;53.106;7.004;2024-03-08T06:45:46;1.10;99.90
52565;DHT22;38460;53.106;7.004;2024-03-08T06:48:18;-0.30;99.90
52565;DHT22;38460;53.106;7.004;2024-03-08T06:50:45;-0.30;99.90
52565;DHT22;38460;53.106;7.004;2024-03-08T06:53:11;-0.30;99.90
52565;DHT22;38460;53.106;7.004;2024-03-08T06:55:37;-0.30;99.90
52565;DHT22;38460;53.106;7.004;2024-03-08T06:58:04;-0.20;99.90
52565;DHT22;38460;53.106;7.004;2024-03-08T07:00:29;-0.20;99.90
52565;DHT22;38460;53.106;7.004;2024-03-08T07:02:59;-0.20;99.90
52565;DHT22;38460;53.106;7.004;2024-03-08T07:05:27;-0.10;99.90
52565;DHT22;38460;53.106;7.004;2024-03-08T07:07:53;-0.10;99.90
52565;DHT22;38460;53.106;7.004;2024-03-08T07:10:23;0.00;99.90
52565;DHT22;38460;53.106;7.004;2024-03-08T07:12:52;0.00;99.90
52565;DHT22;38460;53.106;7.004;2024-03-08T07:15:21;0.10;99.90
52565;DHT22;38460;53.106;7.004;2024-03-08T07:17:49;0.10;99.90
52565;DHT22;38460;53.106;7.004;2024-03-08T07:20:15;0.10;99.90
52565;DHT22;38460;53.106;7.004;2024-03-08T07:22:45;0.20;99.90
52565;DHT22;38460;53.106;7.004;2024-03-08T07:25:14;0.20;99.90
52565;DHT22;38460;53.106;7.004;2024-03-08T07:27:54;0.30;99.90
52565;DHT22;38460;53.106;7.004;2024-03-08T07:30:21;0.30;99.90
52565;DHT22;38460;53.106;7.004;2024-03-08T07:33:06;0.40;99.90
52565;DHT22;38460;53.106;7.004;2024-03-08T07:35:40;0.40;99.90
52565;DHT22;38460;53.106;7.004;2024-03-08T07:38:08;0.50;99.90
52565;DHT22;38460;53.106;7.004;2024-03-08T07:40:41;0.50;99.90
52565;DHT22;38460;53.106;7.004;2024-03-08T07:43:10;0.60;99.90
52565;DHT22;38460;53.106;7.004;2024-03-08T07:45:37;0.60;99.90
52565;DHT22;38460;53.106;7.004;2024-03-08T07:48:03;0.60;99.90
52565;DHT22;38460;53.106;7.004;2024-03-08T07:50:29;0.70;99.90
52565;DHT22;38460;53.106;7.004;2024-03-08T07:52:55;0.70;99.90
52565;DHT22;38460;53.106;7.004;2024-03-08T07:55:21;0.70;99.90
52565;DHT22;38460;53.106;7.004;2024-03-08T07:57:49;0.80;99.90
52565;DHT22;38460;53.106;7.004;2024-03-08T08:00:16;0.90;99.90
52565;DHT22;38460;53.106;7.004;2024-03-08T08:02:45;0.90;99.90
52565;DHT22;38460;53.106;7.004;2024-03-08T08:05:11;0.90;99.90
52565;DHT22;38460;53.106;7.004;2024-03-08T08:07:37;1.00;99.90
52565;DHT22;38460;53.106;7.004;2024-03-08T08:10:03;1.00;99.90
52565;DHT22;38460;53.106;7.004;2024-03-08T08:12:31;1.10;99.90
52565;DHT22;38460;53.106;7.004;2024-03-08T08:14:59;1.10;99.90
52565;DHT22;38460;53.106;7.004;2024-03-08T08:17:25;1.20;99.90
52565;DHT22;38460;53.106;7.004;2024-03-08T08:19:51;1.20;99.90
52565;DHT22;38460;53.106;7.004;2024-03-08T08:22:17;1.30;99.90
52565;DHT22;38460;53.106;7.004;2024-03-08T08:24:43;1.40;99.90
52565;DHT22;38460;53.106;7.004;2024-03-08T08:27:09;1.40;99.90
52565;DHT22;38460;53.106;7.004;2024-03-08T08:29:37;1.50;99.90
52565;DHT22;38460;53.106;7.004;2024-03-08T08:32:03;1.50;99.90
52565;DHT22;38460;53.106;7.004;2024-03-08T08:34:29;1.60;99.90
52565;DHT22;38460;53.106;7.004;2024-03-08T08:36:56;1.60;99.90
52565;DHT22;38460;53.106;7.004;2024-03-08T08:39:22;1.70;99.90
52565;DHT22;38460;53.106;7.004;2024-03-08T08:41:48;1.70;99.90
52565;DHT22;38460;53.106;7.004;2024-03-08T08:44:14;1.80;99.90
52565;DHT22;38460;53.106;7.004;2024-03-08T08:46:40;1.90;99.90
52565;DHT22;38460;53.106;7.004;2024-03-08T08:49:06;1.90;99.90
52565;DHT22;38460;53.106;7.004;2024-03-08T08:51:36;2.00;99.90
52565;DHT22;38460;53.106;7.004;2024-03-08T08:54:02;2.00;99.90
52565;DHT22;38460;53.106;7.004;2024-03-08T08:56:28;2.10;99.90
52565;DHT22;38460;53.106;7.004;2024-03-08T08:58:56;2.20;99.90
52565;DHT22;38460;53.106;7.004;2024-03-08T09:01:23;2.20;99.90
52565;DHT22;38460;53.106;7.004;2024-03-08T09:03:49;2.30;99.90
52565;DHT22;38460;53.106;7.004;2024-03-08T09:06:16;2.30;99.90
52565;DHT22;38460;53.106;7.004;2024-03-08T09:08:45;2.40;99.90
52565;DHT22;38460;53.106;7.004;2024-03-08T09:11:11;2.40;99.90
52565;DHT22;38460;53.106;7.004;2024-03-08T09:13:37;2.50;99.90
52565;DHT22;38460;53.106;7.004;2024-03-08T09:16:03;2.50;99.90
52565;DHT22;38460;53.106;7.004;2024-03-08T09:18:31;2.50;99.90
52565;DHT22;38460;53.106;7.004;2024-03-08T09:20:58;2.60;99.90
52565;DHT22;38460;53.106;7.004;2024-03-08T09:23:25;2.60;99.90
52565;DHT22;38460;53.106;7.004;2024-03-08T09:25:56;2.70;99.90
52565;DHT22;38460;53.106;7.004;2024-03-08T09:28:25;2.80;99.90
52565;DHT22;38460;53.106;7.004;2024-03-08T09:30:52;2.90;99.90
52565;DHT22;38460;53.106;7.004;2024-03-08T09:33:18;2.90;99.90
52565;DHT22;38460;53.106;7.004;2024-03-08T09:35:46;3.00;99.90
52565;DHT22;38460;53.106;7.004;2024-03-08T09:38:16;3.00;99.90
52565;DHT22;38460;53.106;7.004;2024-03-08T09:40:42;3.10;99.90
52565;DHT22;38460;53.106;7.004;2024-03-08T09:43:09;3.10;99.90
52565;DHT22;38460;53.106;7.004;2024-03-08T09:45:38;3.20;99.90
52565;DHT22;38460;53.106;7.004;2024-03-08T09:48:10;3.30;99.90
52565;DHT22;38460;53.106;7.004;2024-03-08T09:50:40;3.30;99.90
52565;DHT22;38460;53.106;7.004;2024-03-08T09:53:07;3.40;99.90
52565;DHT22;38460;53.106;7.004;2024-03-08T09:55:37;3.50;99.90
52565;DHT22;38460;53.106;7.004;2024-03-08T09:58:11;3.60;99.90
52565;DHT22;38460;53.106;7.004;2024-03-08T10:00:55;3.70;99.90
52565;DHT22;38460;53.106;7.004;2024-03-08T10:03:27;3.80;99.90
52565;DHT22;38460;53.106;7.004;2024-03-08T10:05:54;3.90;99.90
52565;DHT22;38460;53.106;7.004;2024-03-08T10:08:22;4.00;99.90
52565;DHT22;38460;53.106;7.004;2024-03-08T10:10:48;4.00;99.90
52565;DHT22;38460;53.106;7.004;2024-03-08T10:13:15;4.10;99.90
52565;DHT22;38460;53.106;7.004;2024-03-08T10:15:42;4.20;99.90
52565;DHT22;38460;53.106;7.004;2024-03-08T10:18:09;4.30;99.90
52565;DHT22;38460;53.106;7.004;2024-03-08T10:20:35;4.40;99.90
52565;DHT22;38460;53.106;7.004;2024-03-08T10:23:02;4.50;99.90
52565;DHT22;38460;53.106;7.004;2024-03-08T10:25:34;4.60;99.90
52565;DHT22;38460;53.106;7.004;2024-03-08T10:28:02;4.60;99.90
52565;DHT22;38460;53.106;7.004;2024-03-08T10:30:29;4.70;99.90
52565;DHT22;38460;53.106;7.004;2024-03-08T10:32:55;4.80;99.90
52565;DHT22;38460;53.106;7.004;2024-03-08T10:35:22;4.90;99.90
52565;DHT22;38460;53.106;7.004;2024-03-08T10:37:50;5.00;99.90
52565;DHT22;38460;53.106;7.004;2024-03-08T10:40:27;5.10;99.90
52565;DHT22;38460;53.106;7.004;2024-03-08T10:42:56;5.20;99.90
52565;DHT22;38460;53.106;7.004;2024-03-08T10:45:35;5.30;99.90
52565;DHT22;38460;53.106;7.004;2024-03-08T10:48:30;5.40;99.90
52565;DHT22;38460;53.106;7.004;2024-03-08T10:50:59;5.50;99.90
52565;DHT22;38460;53.106;7.004;2024-03-08T10:53:28;5.60;99.90
52565;DHT22;38460;53.106;7.004;2024-03-08T10:55:57;5.70;99.90
52565;DHT22;38460;53.106;7.004;2024-03-08T10:58:27;5.80;99.90
52565;DHT22;38460;53.106;7.004;2024-03-08T11:00:57;5.90;99.90
52565;DHT22;38460;53.106;7.004;2024-03-08T11:11:48;6.30;99.90
52565;DHT22;38460;53.106;7.004;2024-03-08T11:14:43;6.40;99.90
52565;DHT22;38460;53.106;7.004;2024-03-08T11:17:09;6.50;99.90
52565;DHT22;38460;53.106;7.004;2024-03-08T11:19:35;6.60;99.90
52565;DHT22;38460;53.106;7.004;2024-03-08T11:22:02;6.70;99.90
52565;DHT22;38460;53.106;7.004;2024-03-08T11:24:37;6.80;99.90
52565;DHT22;38460;53.106;7.004;2024-03-08T11:27:06;6.80;99.90
52565;DHT22;38460;53.106;7.004;2024-03-08T11:29:36;6.90;99.90
52565;DHT22;38460;53.106;7.004;2024-03-08T11:32:17;7.00;99.90
52565;DHT22;38460;53.106;7.004;2024-03-08T11:34:47;7.00;99.90
52565;DHT22;38460;53.106;7.004;2024-03-08T11:37:19;7.10;99.90
52565;DHT22;38460;53.106;7.004;2024-03-08T11:39:55;7.10;99.90
52565;DHT22;38460;53.106;7.004;2024-03-08T11:42:25;7.10;99.90
52565;DHT22;38460;53.106;7.004;2024-03-08T11:44:54;7.20;99.90
52565;DHT22;38460;53.106;7.004;2024-03-08T11:47:21;7.30;99.90
52565;DHT22;38460;53.106;7.004;2024-03-08T11:49:47;7.40;99.90
52565;DHT22;38460;53.106;7.004;2024-03-08T11:52:17;7.50;99.90
52565;DHT22;38460;53.106;7.004;2024-03-08T11:54:51;7.60;99.90
52565;DHT22;38460;53.106;7.004;2024-03-08T11:57:21;7.60;99.90
52565;DHT22;38460;53.106;7.004;2024-03-08T11:59:55;7.70;99.90
52565;DHT22;38460;53.106;7.004;2024-03-08T12:02:22;7.80;99.90
52565;DHT22;38460;53.106;7.004;2024-03-08T12:04:59;7.80;99.90
52565;DHT22;38460;53.106;7.004;2024-03-08T12:07:26;7.90;99.90
52565;DHT22;38460;53.106;7.004;2024-03-08T12:10:15;8.00;99.90
52565;DHT22;38460;53.106;7.004;2024-03-08T12:12:45;8.10;99.90
52565;DHT22;38460;53.106;7.004;2024-03-08T12:15:12;8.20;99.90
52565;DHT22;38460;53.106;7.004;2024-03-08T12:17:38;8.30;99.90
52565;DHT22;38460;53.106;7.004;2024-03-08T12:20:13;8.40;99.90
52565;DHT22;38460;53.106;7.004;2024-03-08T12:22:44;8.50;99.90
52565;DHT22;38460;53.106;7.004;2024-03-08T12:25:13;8.60;99.90
52565;DHT22;38460;53.106;7.004;2024-03-08T12:27:41;8.70;99.90
52565;DHT22;38460;53.106;7.004;2024-03-08T12:30:26;8.80;99.90
52565;DHT22;38460;53.106;7.004;2024-03-08T12:32:58;8.80;99.90
52565;DHT22;38460;53.106;7.004;2024-03-08T12:35:28;8.80;99.90
52565;DHT22;38460;53.106;7.004;2024-03-08T12:37:56;8.90;99.90
52565;DHT22;38460;53.106;7.004;2024-03-08T12:40:40;9.00;99.90
52565;DHT22;38460;53.106;7.004;2024-03-08T12:43:07;9.10;99.90
52565;DHT22;38460;53.106;7.004;2024-03-08T12:45:33;9.20;99.90
52565;DHT22;38460;53.106;7.004;2024-03-08T12:47:59;9.20;99.90
52565;DHT22;38460;53.106;7.004;2024-03-08T12:50:25;9.20;99.90
52565;DHT22;38460;53.106;7.004;2024-03-08T12:52:51;9.30;99.90
52565;DHT22;38460;53.106;7.004;2024-03-08T12:55:21;9.30;99.90
52565;DHT22;38460;53.106;7.004;2024-03-08T12:57:47;9.30;99.90
52565;DHT22;38460;53.106;7.004;2024-03-08T13:00:14;9.30;99.90
52565;DHT22;38460;53.106;7.004;2024-03-08T13:02:46;9.30;99.90
52565;DHT22;38460;53.106;7.004;2024-03-08T13:05:12;9.30;99.90
52565;DHT22;38460;53.106;7.004;2024-03-08T13:07:43;9.30;99.90
52565;DHT22;38460;53.106;7.004;2024-03-08T13:10:15;10.00;99.90
52565;DHT22;38460;53.106;7.004;2024-03-08T13:12:42;9.40;99.90
52565;DHT22;38460;53.106;7.004;2024-03-08T13:15:09;9.50;99.90
52565;DHT22;38460;53.106;7.004;2024-03-08T13:17:37;9.50;99.90
52565;DHT22;38460;53.106;7.004;2024-03-08T13:20:09;9.50;99.90
52565;DHT22;38460;53.106;7.004;2024-03-08T13:22:42;9.60;99.90
52565;DHT22;38460;53.106;7.004;2024-03-08T13:25:08;9.60;99.90
52565;DHT22;38460;53.106;7.004;2024-03-08T13:27:40;9.60;99.90
52565;DHT22;38460;53.106;7.004;2024-03-08T13:30:07;9.60;99.90
52565;DHT22;38460;53.106;7.004;2024-03-08T13:32:36;9.60;99.90
52565;DHT22;38460;53.106;7.004;2024-03-08T13:35:04;9.60;99.90
52565;DHT22;38460;53.106;7.004;2024-03-08T13:37:41;9.60;99.90
52565;DHT22;38460;53.106;7.004;2024-03-08T13:40:08;9.60;99.90
52565;DHT22;38460;53.106;7.004;2024-03-08T13:42:42;9.60;99.90
52565;DHT22;38460;53.106;7.004;2024-03-08T13:45:11;9.60;99.90
52565;DHT22;38460;53.106;7.004;2024-03-08T13:47:37;9.50;99.90
52565;DHT22;38460;53.106;7.004;2024-03-08T13:50:06;9.60;99.90
52565;DHT22;38460;53.106;7.004;2024-03-08T13:52:33;9.50;99.90
52565;DHT22;38460;53.106;7.004;2024-03-08T13:55:03;9.50;99.90
52565;DHT22;38460;53.106;7.004;2024-03-08T13:57:30;9.50;99.90
52565;DHT22;38460;53.106;7.004;2024-03-08T13:59:57;9.40;99.90
52565;DHT22;38460;53.106;7.004;2024-03-08T14:02:23;9.40;99.90
52565;DHT22;38460;53.106;7.004;2024-03-08T14:04:54;9.30;99.90
52565;DHT22;38460;53.106;7.004;2024-03-08T14:07:23;9.20;99.90
52565;DHT22;38460;53.106;7.004;2024-03-08T14:09:50;9.20;99.90
52565;DHT22;38460;53.106;7.004;2024-03-08T14:12:18;9.20;99.90
52565;DHT22;38460;53.106;7.004;2024-03-08T14:14:44;9.20;99.90
52565;DHT22;38460;53.106;7.004;2024-03-08T14:17:10;9.20;99.90
52565;DHT22;38460;53.106;7.004;2024-03-08T14:19:37;9.20;99.90
52565;DHT22;38460;53.106;7.004;2024-03-08T14:22:04;9.10;99.90
52565;DHT22;38460;53.106;7.004;2024-03-08T14:24:31;9.10;99.90
52565;DHT22;38460;53.106;7.004;2024-03-08T14:27:00;9.10;99.90
52565;DHT22;38460;53.106;7.004;2024-03-08T14:29:26;9.00;99.90
52565;DHT22;38460;53.106;7.004;2024-03-08T14:31:55;9.00;99.90
52565;DHT22;38460;53.106;7.004;2024-03-08T14:34:25;8.90;99.90
52565;DHT22;38460;53.106;7.004;2024-03-08T14:36:53;8.90;99.90
52565;DHT22;38460;53.106;7.004;2024-03-08T14:39:19;8.90;99.90
52565;DHT22;38460;53.106;7.004;2024-03-08T14:41:52;8.90;99.90
52565;DHT22;38460;53.106;7.004;2024-03-08T14:44:19;8.90;99.90
52565;DHT22;38460;53.106;7.004;2024-03-08T14:46:46;8.80;99.90
52565;DHT22;38460;53.106;7.004;2024-03-08T14:49:12;8.70;99.90
52565;DHT22;38460;53.106;7.004;2024-03-08T14:51:38;8.70;99.90
52565;DHT22;38460;53.106;7.004;2024-03-08T14:54:04;8.70;99.90
52565;DHT22;38460;53.106;7.004;2024-03-08T14:56:36;8.70;99.90
52565;DHT22;38460;53.106;7.004;2024-03-08T14:59:02;8.70;99.90
52565;DHT22;38460;53.106;7.004;2024-03-08T15:01:30;8.60;99.90
52565;DHT22;38460;53.106;7.004;2024-03-08T15:03:58;8.60;99.90
52565;DHT22;38460;53.106;7.004;2024-03-08T15:06:35;8.50;99.90
52565;DHT22;38460;53.106;7.004;2024-03-08T15:09:03;8.50;99.90
52565;DHT22;38460;53.106;7.004;2024-03-08T15:11:47;8.50;99.90
52565;DHT22;38460;53.106;7.004;2024-03-08T15:14:15;8.50;99.90
52565;DHT22;38460;53.106;7.004;2024-03-08T15:16:45;8.50;99.90
52565;DHT22;38460;53.106;7.004;2024-03-08T15:19:13;8.50;99.90
52565;DHT22;38460;53.106;7.004;2024-03-08T15:21:40;8.50;99.90
52565;DHT22;38460;53.106;7.004;2024-03-08T15:24:08;8.50;99.90
52565;DHT22;38460;53.106;7.004;2024-03-08T15:26:41;8.50;99.90
52565;DHT22;38460;53.106;7.004;2024-03-08T15:29:08;8.50;99.90
52565;DHT22;38460;53.106;7.004;2024-03-08T15:31:34;8.40;99.90
52565;DHT22;38460;53.106;7.004;2024-03-08T15:34:00;8.40;99.90
52565;DHT22;38460;53.106;7.004;2024-03-08T15:36:28;8.30;99.90
52565;DHT22;38460;53.106;7.004;2024-03-08T15:38:57;8.30;99.90
52565;DHT22;38460;53.106;7.004;2024-03-08T15:41:23;8.30;99.90
52565;DHT22;38460;53.106;7.004;2024-03-08T15:43:49;8.20;99.90
52565;DHT22;38460;53.106;7.004;2024-03-08T15:46:15;8.20;99.90
52565;DHT22;38460;53.106;7.004;2024-03-08T15:48:41;8.10;99.90
52565;DHT22;38460;53.106;7.004;2024-03-08T15:51:08;8.10;99.90
52565;DHT22;38460;53.106;7.004;2024-03-08T15:53:37;8.10;99.90
52565;DHT22;38460;53.106;7.004;2024-03-08T15:56:04;8.00;99.90